Aviation Digital Data Service (ADDS)

Output produced by METARs form (1748 UTC 25 March 2019)
found at http://www.aviationweather.gov/metar/data/
 
Forecast for: OPMT (MULTAN , PK)
Text: TAF OPMT 251605Z 2518/2612 31005KT 5000 FU FEW120 TN18/2601Z TX31/2610Z
Forecast period: 1800 UTC 25 March 2019 to 1200 UTC 26 March 2019
Forecast type: FROM: standard forecast or significant change
Winds: from the NW (310 degrees) at 6 MPH (5 knots; 2.6 m/s)
Visibility: 3 miles (5 km)
Ceiling: at least 12,000 feet AGL
Clouds: few clouds at 12000 feet AGL
Weather: FU  (smoke)